sensor_id;sensor_type;location;lat;lon;timestamp;pressure;altitude;pressure_sealevel;temperature;humidity
60345;BME280;46188;52.324;8.032;2023-04-07T00:01:08;100359.75;;;7.26;100.00
60345;BME280;46188;52.324;8.032;2023-04-07T00:03:33;100364.06;;;7.22;100.00
60345;BME280;46188;52.324;8.032;2023-04-07T00:05:59;100350.06;;;7.23;100.00
60345;BME280;46188;52.324;8.032;2023-04-07T00:08:25;100350.94;;;7.22;100.00
60345;BME280;46188;52.324;8.032;2023-04-07T00:10:50;100364.94;;;7.23;100.00
60345;BME280;46188;52.324;8.032;2023-04-07T00:13:15;100351.72;;;7.18;100.00
60345;BME280;46188;52.324;8.032;2023-04-07T00:15:40;100349.13;;;7.19;100.00
60345;BME280;46188;52.324;8.032;2023-04-07T00:18:06;100348.28;;;7.20;100.00
60345;BME280;46188;52.324;8.032;2023-04-07T00:20:31;100350.91;;;7.20;100.00
60345;BME280;46188;52.324;8.032;2023-04-07T00:22:56;100343.91;;;7.21;100.00
60345;BME280;46188;52.324;8.032;2023-04-07T00:25:22;100346.47;;;7.18;100.00
60345;BME280;46188;52.324;8.032;2023-04-07T00:27:48;100344.75;;;7.18;100.00
60345;BME280;46188;52.324;8.032;2023-04-07T00:30:13;100345.59;;;7.17;100.00
60345;BME280;46188;52.324;8.032;2023-04-07T00:32:39;100347.31;;;7.15;100.00
60345;BME280;46188;52.324;8.032;2023-04-07T00:35:05;100347.31;;;7.15;100.00
60345;BME280;46188;52.324;8.032;2023-04-07T00:37:30;100345.47;;;7.13;100.00
60345;BME280;46188;52.324;8.032;2023-04-07T00:39:56;100350.72;;;7.13;100.00
60345;BME280;46188;52.324;8.032;2023-04-07T00:42:23;100337.53;;;7.10;100.00
60345;BME280;46188;52.324;8.032;2023-04-07T00:44:48;100339.31;;;7.11;100.00
60345;BME280;46188;52.324;8.032;2023-04-07T00:47:14;100335.84;;;7.10;100.00
60345;BME280;46188;52.324;8.032;2023-04-07T00:49:39;100341.16;;;7.15;100.00
60345;BME280;46188;52.324;8.032;2023-04-07T00:52:04;100338.56;;;7.16;100.00
60345;BME280;46188;52.324;8.032;2023-04-07T00:54:32;100339.41;;;7.14;100.00
60345;BME280;46188;52.324;8.032;2023-04-07T00:56:58;100335.97;;;7.18;100.00
60345;BME280;46188;52.324;8.032;2023-04-07T00:59:24;100338.53;;;7.15;100.00
60345;BME280;46188;52.324;8.032;2023-04-07T01:02:00;100327.16;;;7.14;100.00
60345;BME280;46188;52.324;8.032;2023-04-07T01:04:38;100331.53;;;7.14;100.00
60345;BME280;46188;52.324;8.032;2023-04-07T01:07:22;100323.59;;;7.11;100.00
60345;BME280;46188;52.324;8.032;2023-04-07T01:09:57;100322.81;;;7.15;100.00
60345;BME280;46188;52.324;8.032;2023-04-07T01:12:34;100327.28;;;7.19;100.00
60345;BME280;46188;52.324;8.032;2023-04-07T01:15:08;100322.03;;;7.19;100.00
60345;BME280;46188;52.324;8.032;2023-04-07T01:17:34;100321.94;;;7.14;100.00
60345;BME280;46188;52.324;8.032;2023-04-07T01:20:03;100322.81;;;7.13;100.00
60345;BME280;46188;52.324;8.032;2023-04-07T01:22:35;100327.16;;;7.14;100.00
60345;BME280;46188;52.324;8.032;2023-04-07T01:28:14;100320.25;;;7.18;100.00
60345;BME280;46188;52.324;8.032;2023-04-07T01:30:45;100319.38;;;7.17;100.00
60345;BME280;46188;52.324;8.032;2023-04-07T01:33:13;100319.38;;;7.17;100.00
60345;BME280;46188;52.324;8.032;2023-04-07T01:35:40;100323.72;;;7.15;100.00
60345;BME280;46188;52.324;8.032;2023-04-07T01:38:08;100318.28;;;7.08;100.00
60345;BME280;46188;52.324;8.032;2023-04-07T01:40:36;100320.91;;;7.08;100.00
60345;BME280;46188;52.324;8.032;2023-04-07T01:43:03;100324.44;;;7.10;100.00
60345;BME280;46188;52.324;8.032;2023-04-07T01:45:31;100323.53;;;7.08;100.00
60345;BME280;46188;52.324;8.032;2023-04-07T01:47:58;100322.66;;;7.07;100.00
60345;BME280;46188;52.324;8.032;2023-04-07T01:50:25;100320.88;;;7.06;100.00
60345;BME280;46188;52.324;8.032;2023-04-07T01:52:51;100320.09;;;7.10;100.00
60345;BME280;46188;52.324;8.032;2023-04-07T01:55:17;100319.19;;;7.10;100.00
60345;BME280;46188;52.324;8.032;2023-04-07T01:57:42;100315.66;;;7.08;100.00
60345;BME280;46188;52.324;8.032;2023-04-07T02:00:08;100316.53;;;7.07;100.00
60345;BME280;46188;52.324;8.032;2023-04-07T02:02:35;100317.47;;;7.10;100.00
60345;BME280;46188;52.324;8.032;2023-04-07T02:05:08;100305.22;;;7.09;100.00
60345;BME280;46188;52.324;8.032;2023-04-07T02:07:51;100313.03;;;7.08;100.00
60345;BME280;46188;52.324;8.032;2023-04-07T02:10:20;100311.34;;;7.10;100.00
60345;BME280;46188;52.324;8.032;2023-04-07T02:12:47;100313.06;;;7.09;100.00
60345;BME280;46188;52.324;8.032;2023-04-07T02:15:13;100314.81;;;7.09;100.00
60345;BME280;46188;52.324;8.032;2023-04-07T02:17:41;100313.03;;;7.08;100.00
60345;BME280;46188;52.324;8.032;2023-04-07T02:20:08;100310.34;;;7.05;100.00
60345;BME280;46188;52.324;8.032;2023-04-07T02:22:36;100311.22;;;7.04;100.00
60345;BME280;46188;52.324;8.032;2023-04-07T02:25:02;100316.38;;;7.00;100.00
60345;BME280;46188;52.324;8.032;2023-04-07T02:27:27;100307.66;;;7.01;100.00
60345;BME280;46188;52.324;8.032;2023-04-07T02:29:52;100313.81;;;7.02;100.00
60345;BME280;46188;52.324;8.032;2023-04-07T02:32:18;100310.28;;;7.01;100.00
60345;BME280;46188;52.324;8.032;2023-04-07T02:34:43;100312.97;;;7.05;100.00
60345;BME280;46188;52.324;8.032;2023-04-07T02:37:08;100314.59;;;6.99;100.00
60345;BME280;46188;52.324;8.032;2023-04-07T02:39:34;100311.16;;;7.00;100.00
60345;BME280;46188;52.324;8.032;2023-04-07T02:41:59;100315.63;;;7.06;100.00
60345;BME280;46188;52.324;8.032;2023-04-07T02:44:25;100316.53;;;7.07;100.00
60345;BME280;46188;52.324;8.032;2023-04-07T02:46:50;100312.97;;;7.05;100.00
60345;BME280;46188;52.324;8.032;2023-04-07T02:49:15;100313.84;;;7.04;100.00
60345;BME280;46188;52.324;8.032;2023-04-07T02:51:40;100313.75;;;7.00;100.00
60345;BME280;46188;52.324;8.032;2023-04-07T02:54:06;100318.94;;;6.97;100.00
60345;BME280;46188;52.324;8.032;2023-04-07T02:56:31;100317.16;;;6.96;100.00
60345;BME280;46188;52.324;8.032;2023-04-07T02:58:56;100322.34;;;6.95;100.00
60345;BME280;46188;52.324;8.032;2023-04-07T03:01:22;100323.28;;;6.97;100.00
60345;BME280;46188;52.324;8.032;2023-04-07T03:03:47;100314.56;;;6.98;100.00
60345;BME280;46188;52.324;8.032;2023-04-07T03:06:13;100325.97;;;6.98;100.00
60345;BME280;46188;52.324;8.032;2023-04-07T03:08:38;100313.69;;;6.97;100.00
60345;BME280;46188;52.324;8.032;2023-04-07T03:11:03;100313.66;;;6.96;100.00
60345;BME280;46188;52.324;8.032;2023-04-07T03:13:28;100318.84;;;6.94;100.00
60345;BME280;46188;52.324;8.032;2023-04-07T03:15:55;100314.44;;;6.93;100.00
60345;BME280;46188;52.324;8.032;2023-04-07T03:18:21;100312.69;;;6.92;100.00
60345;BME280;46188;52.324;8.032;2023-04-07T03:20:47;100315.34;;;6.94;100.00
60345;BME280;46188;52.324;8.032;2023-04-07T03:23:12;100322.28;;;6.92;100.00
60345;BME280;46188;52.324;8.032;2023-04-07T03:25:38;100316.09;;;6.88;100.00
60345;BME280;46188;52.324;8.032;2023-04-07T03:28:03;100315.22;;;6.88;100.00
60345;BME280;46188;52.324;8.032;2023-04-07T03:30:28;100316.94;;;6.87;100.00
60345;BME280;46188;52.324;8.032;2023-04-07T03:32:54;100313.38;;;6.85;100.00
60345;BME280;46188;52.324;8.032;2023-04-07T03:35:19;100309.09;;;6.87;100.00
60345;BME280;46188;52.324;8.032;2023-04-07T03:37:44;100317.00;;;6.89;100.00
60345;BME280;46188;52.324;8.032;2023-04-07T03:40:10;100313.50;;;6.90;100.00
60345;BME280;46188;52.324;8.032;2023-04-07T03:42:35;100316.03;;;6.87;100.00
60345;BME280;46188;52.324;8.032;2023-04-07T03:45:00;100308.16;;;6.85;100.00
60345;BME280;46188;52.324;8.032;2023-04-07T03:47:26;100316.84;;;6.82;100.00
60345;BME280;46188;52.324;8.032;2023-04-07T03:49:51;100317.66;;;6.81;100.00
60345;BME280;46188;52.324;8.032;2023-04-07T03:52:16;100322.94;;;6.83;100.00
60345;BME280;46188;52.324;8.032;2023-04-07T03:54:42;100321.19;;;6.82;100.00
60345;BME280;46188;52.324;8.032;2023-04-07T03:57:07;100317.72;;;6.83;100.00
60345;BME280;46188;52.324;8.032;2023-04-07T03:59:32;100319.41;;;6.81;100.00
60345;BME280;46188;52.324;8.032;2023-04-07T04:01:57;100317.72;;;6.83;100.00
60345;BME280;46188;52.324;8.032;2023-04-07T04:04:23;100319.41;;;6.81;100.00
60345;BME280;46188;52.324;8.032;2023-04-07T04:06:51;100321.03;;;6.76;100.00
60345;BME280;46188;52.324;8.032;2023-04-07T04:09:16;100321.84;;;6.73;100.00
60345;BME280;46188;52.324;8.032;2023-04-07T04:11:42;100328.00;;;6.74;100.00
60345;BME280;46188;52.324;8.032;2023-04-07T04:14:07;100327.19;;;6.78;100.00
60345;BME280;46188;52.324;8.032;2023-04-07T04:16:32;100325.47;;;6.78;100.00
60345;BME280;46188;52.324;8.032;2023-04-07T04:18:59;100329.75;;;6.75;100.00
60345;BME280;46188;52.324;8.032;2023-04-07T04:21:24;100324.44;;;6.72;100.00
60345;BME280;46188;52.324;8.032;2023-04-07T04:23:51;100330.63;;;6.74;100.00
60345;BME280;46188;52.324;8.032;2023-04-07T04:26:17;100330.56;;;6.72;100.00
60345;BME280;46188;52.324;8.032;2023-04-07T04:28:42;100328.78;;;6.71;100.00
60345;BME280;46188;52.324;8.032;2023-04-07T04:31:07;100331.31;;;6.68;100.00
60345;BME280;46188;52.324;8.032;2023-04-07T04:33:32;100333.94;;;6.68;100.00
60345;BME280;46188;52.324;8.032;2023-04-07T04:35:58;100335.66;;;6.66;100.00
60345;BME280;46188;52.324;8.032;2023-04-07T04:38:23;100337.47;;;6.69;100.00
60345;BME280;46188;52.324;8.032;2023-04-07T04:40:48;100341.78;;;6.67;100.00
60345;BME280;46188;52.324;8.032;2023-04-07T04:43:13;100340.94;;;6.68;100.00
60345;BME280;46188;52.324;8.032;2023-04-07T04:45:39;100345.25;;;6.65;100.00
60345;BME280;46188;52.324;8.032;2023-04-07T04:48:05;100346.16;;;6.68;100.00
60345;BME280;46188;52.324;8.032;2023-04-07T04:50:30;100345.34;;;6.69;100.00
60345;BME280;46188;52.324;8.032;2023-04-07T04:52:55;100346.16;;;6.68;100.00
60345;BME280;46188;52.324;8.032;2023-04-07T04:55:20;100341.69;;;6.63;100.00
60345;BME280;46188;52.324;8.032;2023-04-07T04:57:46;100354.88;;;6.67;100.00
60345;BME280;46188;52.324;8.032;2023-04-07T05:00:11;100366.22;;;6.65;100.00
60345;BME280;46188;52.324;8.032;2023-04-07T05:02:37;100358.28;;;6.62;100.00
60345;BME280;46188;52.324;8.032;2023-04-07T05:05:02;100353.06;;;6.64;100.00
60345;BME280;46188;52.324;8.032;2023-04-07T05:07:27;100352.16;;;6.63;100.00
60345;BME280;46188;52.324;8.032;2023-04-07T05:09:53;100360.88;;;6.62;100.00
60345;BME280;46188;52.324;8.032;2023-04-07T05:12:18;100361.72;;;6.61;100.00
60345;BME280;46188;52.324;8.032;2023-04-07T05:14:43;100367.03;;;6.64;100.00
60345;BME280;46188;52.324;8.032;2023-04-07T05:17:09;100365.34;;;6.67;100.00
60345;BME280;46188;52.324;8.032;2023-04-07T05:19:34;100358.44;;;6.69;100.00
60345;BME280;46188;52.324;8.032;2023-04-07T05:21:59;100363.59;;;6.65;100.00
60345;BME280;46188;52.324;8.032;2023-04-07T05:24:27;100365.34;;;6.67;100.00
60345;BME280;46188;52.324;8.032;2023-04-07T05:26:52;100366.22;;;6.65;100.00
60345;BME280;46188;52.324;8.032;2023-04-07T05:29:17;100363.59;;;6.65;100.00
60345;BME280;46188;52.324;8.032;2023-04-07T05:31:43;100374.97;;;6.68;100.00
60345;BME280;46188;52.324;8.032;2023-04-07T05:34:08;100373.91;;;6.59;100.00
60345;BME280;46188;52.324;8.032;2023-04-07T05:36:34;100373.06;;;6.60;100.00
60345;BME280;46188;52.324;8.032;2023-04-07T05:38:59;100372.25;;;6.63;100.00
60345;BME280;46188;52.324;8.032;2023-04-07T05:41:24;100367.00;;;6.63;100.00
60345;BME280;46188;52.324;8.032;2023-04-07T05:43:50;100378.31;;;6.62;100.00
60345;BME280;46188;52.324;8.032;2023-04-07T05:46:15;100373.06;;;6.62;100.00
60345;BME280;46188;52.324;8.032;2023-04-07T05:48:40;100374.75;;;6.58;100.00
60345;BME280;46188;52.324;8.032;2023-04-07T05:51:06;100371.38;;;6.62;100.00
60345;BME280;46188;52.324;8.032;2023-04-07T05:53:31;100380.22;;;6.68;100.00
60345;BME280;46188;52.324;8.032;2023-04-07T05:55:56;100378.53;;;6.70;100.00
60345;BME280;46188;52.324;8.032;2023-04-07T05:58:21;100385.63;;;6.74;100.00
60345;BME280;46188;52.324;8.032;2023-04-07T06:00:47;100388.34;;;6.78;100.00
60345;BME280;46188;52.324;8.032;2023-04-07T06:03:12;100390.13;;;6.79;100.00
60345;BME280;46188;52.324;8.032;2023-04-07T06:05:37;100393.63;;;6.80;100.00
60345;BME280;46188;52.324;8.032;2023-04-07T06:08:07;100388.41;;;6.81;100.00
60345;BME280;46188;52.324;8.032;2023-04-07T06:10:32;100394.69;;;6.88;100.00
60345;BME280;46188;52.324;8.032;2023-04-07T06:12:57;100395.66;;;6.90;100.00
60345;BME280;46188;52.324;8.032;2023-04-07T06:15:23;100400.94;;;6.93;100.00
60345;BME280;46188;52.324;8.032;2023-04-07T06:17:48;100394.78;;;6.91;100.00
60345;BME280;46188;52.324;8.032;2023-04-07T06:20:13;100395.59;;;6.89;100.00
60345;BME280;46188;52.324;8.032;2023-04-07T06:22:38;100399.06;;;6.88;100.00
60345;BME280;46188;52.324;8.032;2023-04-07T06:25:04;100401.72;;;6.89;100.00
60345;BME280;46188;52.324;8.032;2023-04-07T06:27:29;100399.97;;;6.90;100.00
60345;BME280;46188;52.324;8.032;2023-04-07T06:29:55;100400.09;;;6.94;100.00
60345;BME280;46188;52.324;8.032;2023-04-07T06:32:21;100408.06;;;6.99;100.00
60345;BME280;46188;52.324;8.032;2023-04-07T06:34:46;100407.31;;;7.05;100.00
60345;BME280;46188;52.324;8.032;2023-04-07T06:37:12;100412.59;;;7.06;100.00
60345;BME280;46188;52.324;8.032;2023-04-07T06:39:38;100412.72;;;7.11;100.00
60345;BME280;46188;52.324;8.032;2023-04-07T06:42:03;100421.63;;;7.17;100.00
60345;BME280;46188;52.324;8.032;2023-04-07T06:44:28;100419.81;;;7.15;100.00
60345;BME280;46188;52.324;8.032;2023-04-07T06:46:54;100433.69;;;7.11;100.00
60345;BME280;46188;52.324;8.032;2023-04-07T06:49:19;100432.91;;;7.13;100.00
60345;BME280;46188;52.324;8.032;2023-04-07T06:51:45;100435.56;;;7.16;100.00
60345;BME280;46188;52.324;8.032;2023-04-07T06:54:10;100434.81;;;7.20;100.00
60345;BME280;46188;52.324;8.032;2023-04-07T06:56:42;100442.72;;;7.22;100.00
60345;BME280;46188;52.324;8.032;2023-04-07T06:59:08;100437.53;;;7.25;100.00
60345;BME280;46188;52.324;8.032;2023-04-07T07:01:33;100439.44;;;7.32;100.00
60345;BME280;46188;52.324;8.032;2023-04-07T07:03:58;100445.38;;;7.24;100.00
60345;BME280;46188;52.324;8.032;2023-04-07T07:06:27;100454.19;;;7.27;100.00
60345;BME280;46188;52.324;8.032;2023-04-07T07:08:52;100448.19;;;7.33;100.00
60345;BME280;46188;52.324;8.032;2023-04-07T07:11:18;100451.81;;;7.36;100.00
60345;BME280;46188;52.324;8.032;2023-04-07T07:13:43;100438.66;;;7.35;100.00
60345;BME280;46188;52.324;8.032;2023-04-07T07:16:09;100450.22;;;7.45;100.00
60345;BME280;46188;52.324;8.032;2023-04-07T07:18:35;100453.06;;;7.54;100.00
60345;BME280;46188;52.324;8.032;2023-04-07T07:21:01;100451.34;;;7.56;100.00
60345;BME280;46188;52.324;8.032;2023-04-07T07:23:26;100457.66;;;7.64;100.00
60345;BME280;46188;52.324;8.032;2023-04-07T07:25:51;100451.34;;;7.56;100.00
60345;BME280;46188;52.324;8.032;2023-04-07T07:28:16;100454.94;;;7.60;100.00
60345;BME280;46188;52.324;8.032;2023-04-07T07:30:42;100464.69;;;7.65;100.00
60345;BME280;46188;52.324;8.032;2023-04-07T07:33:07;100458.38;;;7.57;100.00
60345;BME280;46188;52.324;8.032;2023-04-07T07:35:33;100474.06;;;7.54;100.00
60345;BME280;46188;52.324;8.032;2023-04-07T07:37:58;100467.28;;;7.64;100.00
60345;BME280;46188;52.324;8.032;2023-04-07T07:40:23;100470.03;;;7.68;100.00
60345;BME280;46188;52.324;8.032;2023-04-07T07:42:49;100470.09;;;7.71;100.00
60345;BME280;46188;52.324;8.032;2023-04-07T07:45:14;100475.53;;;7.81;100.00
60345;BME280;46188;52.324;8.032;2023-04-07T07:47:40;100472.25;;;7.89;100.00
60345;BME280;46188;52.324;8.032;2023-04-07T07:50:06;100472.94;;;7.82;100.00
60345;BME280;46188;52.324;8.032;2023-04-07T07:52:31;100485.16;;;7.80;100.00
60345;BME280;46188;52.324;8.032;2023-04-07T07:54:56;100485.22;;;7.83;100.00
60345;BME280;46188;52.324;8.032;2023-04-07T07:57:21;100486.94;;;7.83;100.00
60345;BME280;46188;52.324;8.032;2023-04-07T07:59:47;100495.78;;;7.86;100.00
60345;BME280;46188;52.324;8.032;2023-04-07T08:02:12;100494.88;;;7.86;100.00
60345;BME280;46188;52.324;8.032;2023-04-07T08:04:37;100493.16;;;7.86;100.00
60345;BME280;46188;52.324;8.032;2023-04-07T08:07:03;100494.97;;;7.89;100.00
60345;BME280;46188;52.324;8.032;2023-04-07T08:09:28;100493.31;;;7.94;100.00
60345;BME280;46188;52.324;8.032;2023-04-07T08:11:54;100496.09;;;8.00;100.00
60345;BME280;46188;52.324;8.032;2023-04-07T08:14:20;100502.22;;;8.01;100.00
60345;BME280;46188;52.324;8.032;2023-04-07T08:16:45;100507.56;;;8.05;100.00
60345;BME280;46188;52.324;8.032;2023-04-07T08:19:11;100505.94;;;8.10;100.00
60345;BME280;46188;52.324;8.032;2023-04-07T08:21:37;100506.00;;;8.13;100.00
60345;BME280;46188;52.324;8.032;2023-04-07T08:24:03;100507.00;;;8.20;100.00
60345;BME280;46188;52.324;8.032;2023-04-07T08:26:28;100509.94;;;8.34;100.00
60345;BME280;46188;52.324;8.032;2023-04-07T08:28:53;100510.22;;;8.46;100.00
60345;BME280;46188;52.324;8.032;2023-04-07T08:31:20;100517.41;;;8.57;100.00
60345;BME280;46188;52.324;8.032;2023-04-07T08:33:45;100514.00;;;8.61;100.00
60345;BME280;46188;52.324;8.032;2023-04-07T08:36:11;100515.69;;;8.59;100.00
60345;BME280;46188;52.324;8.032;2023-04-07T08:38:36;100522.88;;;8.66;100.00
60345;BME280;46188;52.324;8.032;2023-04-07T08:41:03;100515.88;;;8.68;100.00
60345;BME280;46188;52.324;8.032;2023-04-07T08:43:32;100519.22;;;8.59;100.00
60345;BME280;46188;52.324;8.032;2023-04-07T08:45:59;100523.63;;;8.60;100.00
60345;BME280;46188;52.324;8.032;2023-04-07T08:48:29;100523.75;;;8.66;100.00
60345;BME280;46188;52.324;8.032;2023-04-07T08:50:59;100530.06;;;8.76;100.00
60345;BME280;46188;52.324;8.032;2023-04-07T08:53:34;100534.59;;;8.85;100.00
60345;BME280;46188;52.324;8.032;2023-04-07T08:56:00;100532.06;;;8.90;100.00
60345;BME280;46188;52.324;8.032;2023-04-07T08:58:27;100535.44;;;8.82;100.00
60345;BME280;46188;52.324;8.032;2023-04-07T09:00:52;100536.31;;;8.83;100.00
60345;BME280;46188;52.324;8.032;2023-04-07T09:03:18;100534.59;;;8.85;100.00
60345;BME280;46188;52.324;8.032;2023-04-07T09:05:44;100540.91;;;8.93;100.00
60345;BME280;46188;52.324;8.032;2023-04-07T09:08:10;100539.31;;;9.03;100.00
60345;BME280;46188;52.324;8.032;2023-04-07T09:10:35;100536.03;;;9.15;100.00
60345;BME280;46188;52.324;8.032;2023-04-07T09:13:01;100537.97;;;9.23;100.00
60345;BME280;46188;52.324;8.032;2023-04-07T09:15:30;100546.75;;;9.26;100.00
60345;BME280;46188;52.324;8.032;2023-04-07T09:17:58;100546.56;;;9.16;100.00
60345;BME280;46188;52.324;8.032;2023-04-07T09:20:23;100549.06;;;9.07;100.00
60345;BME280;46188;52.324;8.032;2023-04-07T09:22:49;100555.09;;;9.03;100.00
60345;BME280;46188;52.324;8.032;2023-04-07T09:25:17;100546.31;;;9.01;100.00
60345;BME280;46188;52.324;8.032;2023-04-07T09:28:00;100549.03;;;9.05;100.00
60345;BME280;46188;52.324;8.032;2023-04-07T09:30:26;100550.03;;;9.12;100.00
60345;BME280;46188;52.324;8.032;2023-04-07T09:32:51;100544.81;;;9.15;100.00
60345;BME280;46188;52.324;8.032;2023-04-07T09:35:17;100546.63;;;9.19;100.00
60345;BME280;46188;52.324;8.032;2023-04-07T09:37:42;100549.41;;;9.27;100.00
60345;BME280;46188;52.324;8.032;2023-04-07T09:40:09;100541.59;;;9.32;100.00
60345;BME280;46188;52.324;8.032;2023-04-07T09:42:34;100549.53;;;9.35;100.00
60345;BME280;46188;52.324;8.032;2023-04-07T09:45:02;100544.28;;;9.36;100.00
60345;BME280;46188;52.324;8.032;2023-04-07T09:47:28;100552.28;;;9.41;100.00
60345;BME280;46188;52.324;8.032;2023-04-07T09:49:55;100545.38;;;9.48;100.00
60345;BME280;46188;52.324;8.032;2023-04-07T09:52:23;100543.59;;;9.48;100.00
60345;BME280;46188;52.324;8.032;2023-04-07T09:54:49;100545.34;;;9.46;100.00
60345;BME280;46188;52.324;8.032;2023-04-07T09:57:16;100552.38;;;9.47;100.00
60345;BME280;46188;52.324;8.032;2023-04-07T09:59:43;100558.50;;;9.46;100.00
60345;BME280;46188;52.324;8.032;2023-04-07T10:02:10;100552.44;;;9.50;100.00
60345;BME280;46188;52.324;8.032;2023-04-07T10:04:36;100549.94;;;9.59;100.00
60345;BME280;46188;52.324;8.032;2023-04-07T10:07:01;100540.41;;;9.68;100.00
60345;BME280;46188;52.324;8.032;2023-04-07T10:09:28;100545.72;;;9.71;100.00
60345;BME280;46188;52.324;8.032;2023-04-07T10:11:55;100545.88;;;9.80;100.00
60345;BME280;46188;52.324;8.032;2023-04-07T10:14:25;100546.81;;;9.84;100.00
60345;BME280;46188;52.324;8.032;2023-04-07T10:16:51;100546.75;;;9.81;100.00
60345;BME280;46188;52.324;8.032;2023-04-07T10:19:18;100549.50;;;9.87;100.00
60345;BME280;46188;52.324;8.032;2023-04-07T10:21:43;100558.28;;;9.87;100.00
60345;BME280;46188;52.324;8.032;2023-04-07T10:24:28;100549.56;;;9.91;100.00
60345;BME280;46188;52.324;8.032;2023-04-07T10:26:59;100554.91;;;9.97;100.00
60345;BME280;46188;52.324;8.032;2023-04-07T10:29:31;100552.38;;;10.04;100.00
60345;BME280;46188;52.324;8.032;2023-04-07T10:31:59;100563.03;;;10.11;100.00
60345;BME280;46188;52.324;8.032;2023-04-07T10:37:18;100563.50;;;10.45;100.00
60345;BME280;46188;52.324;8.032;2023-04-07T10:39:45;100557.72;;;10.73;100.00
60345;BME280;46188;52.324;8.032;2023-04-07T10:45:06;100565.19;;;11.17;100.00
60345;BME280;46188;52.324;8.032;2023-04-07T10:47:32;100568.69;;;11.13;100.00
60345;BME280;46188;52.324;8.032;2023-04-07T10:50:17;100565.34;;;11.29;100.00
60345;BME280;46188;52.324;8.032;2023-04-07T10:52:44;100568.13;;;11.46;100.00
60345;BME280;46188;52.324;8.032;2023-04-07T11:03:24;100568.97;;;11.40;96.65
60345;BME280;46188;52.324;8.032;2023-04-07T11:05:49;100570.69;;;11.38;96.85
60345;BME280;46188;52.324;8.032;2023-04-07T11:08:15;100572.53;;;11.45;95.44
60345;BME280;46188;52.324;8.032;2023-04-07T11:10:55;100577.81;;;11.47;92.22
60345;BME280;46188;52.324;8.032;2023-04-07T11:13:21;100576.16;;;11.60;91.34
60345;BME280;46188;52.324;8.032;2023-04-07T11:15:49;100564.00;;;11.79;91.19
60345;BME280;46188;52.324;8.032;2023-04-07T11:18:17;100566.81;;;12.00;89.38
60345;BME280;46188;52.324;8.032;2023-04-07T11:20:55;100565.16;;;12.18;88.22
60345;BME280;46188;52.324;8.032;2023-04-07T11:23:23;100573.13;;;12.23;89.68
60345;BME280;46188;52.324;8.032;2023-04-07T11:25:51;100561.81;;;12.50;88.10
60345;BME280;46188;52.324;8.032;2023-04-07T11:28:17;100575.13;;;12.73;86.38
60345;BME280;46188;52.324;8.032;2023-04-07T11:30:51;100573.41;;;12.81;83.74
60345;BME280;46188;52.324;8.032;2023-04-07T11:33:19;100567.25;;;12.90;83.06
60345;BME280;46188;52.324;8.032;2023-04-07T11:35:50;100572.63;;;13.16;81.89
60345;BME280;46188;52.324;8.032;2023-04-07T11:38:16;100568.19;;;13.20;79.55
60345;BME280;46188;52.324;8.032;2023-04-07T11:40:42;100565.53;;;13.17;76.92
60345;BME280;46188;52.324;8.032;2023-04-07T11:43:18;100568.22;;;13.26;76.51
60345;BME280;46188;52.324;8.032;2023-04-07T11:45:44;100577.03;;;13.22;76.62
60345;BME280;46188;52.324;8.032;2023-04-07T11:48:27;100577.00;;;13.17;75.73
60345;BME280;46188;52.324;8.032;2023-04-07T11:50:53;100577.00;;;13.06;75.91
60345;BME280;46188;52.324;8.032;2023-04-07T11:53:32;100575.22;;;12.96;76.21
60345;BME280;46188;52.324;8.032;2023-04-07T11:56:09;100572.56;;;12.95;73.87
60345;BME280;46188;52.324;8.032;2023-04-07T11:58:36;100572.56;;;13.05;73.59
60345;BME280;46188;52.324;8.032;2023-04-07T12:01:05;100574.44;;;13.40;73.27
60345;BME280;46188;52.324;8.032;2023-04-07T12:03:34;100571.78;;;13.66;72.16
60345;BME280;46188;52.324;8.032;2023-04-07T12:06:01;100563.84;;;13.70;68.65
60345;BME280;46188;52.324;8.032;2023-04-07T12:08:41;100578.84;;;13.92;69.08
60345;BME280;46188;52.324;8.032;2023-04-07T12:11:07;100590.34;;;13.99;69.12
60345;BME280;46188;52.324;8.032;2023-04-07T12:13:34;100590.31;;;14.11;70.28
60345;BME280;46188;52.324;8.032;2023-04-07T12:15:59;100588.56;;;14.07;68.99
60345;BME280;46188;52.324;8.032;2023-04-07T12:18:25;100580.56;;;14.18;70.07
60345;BME280;46188;52.324;8.032;2023-04-07T12:20:52;100591.16;;;14.33;69.20
60345;BME280;46188;52.324;8.032;2023-04-07T12:23:17;100585.81;;;14.43;69.85
60345;BME280;46188;52.324;8.032;2023-04-07T12:25:43;100590.19;;;14.54;68.90
60345;BME280;46188;52.324;8.032;2023-04-07T12:28:09;100592.88;;;14.48;66.86
60345;BME280;46188;52.324;8.032;2023-04-07T12:30:35;100598.22;;;14.33;67.34
60345;BME280;46188;52.324;8.032;2023-04-07T12:33:00;100599.97;;;14.42;66.86
60345;BME280;46188;52.324;8.032;2023-04-07T12:35:27;100592.91;;;14.45;65.83
60345;BME280;46188;52.324;8.032;2023-04-07T12:37:52;100604.44;;;14.32;65.67
60345;BME280;46188;52.324;8.032;2023-04-07T12:40:18;100609.78;;;13.87;65.29
60345;BME280;46188;52.324;8.032;2023-04-07T12:42:43;100615.06;;;13.59;65.44
60345;BME280;46188;52.324;8.032;2023-04-07T12:45:09;100616.81;;;13.48;66.13
60345;BME280;46188;52.324;8.032;2023-04-07T12:47:34;100617.63;;;13.27;64.65
60345;BME280;46188;52.324;8.032;2023-04-07T12:49:59;100625.53;;;13.15;65.49
60345;BME280;46188;52.324;8.032;2023-04-07T12:52:25;100623.75;;;13.09;65.92
60345;BME280;46188;52.324;8.032;2023-04-07T12:54:51;100631.69;;;13.10;65.67
60345;BME280;46188;52.324;8.032;2023-04-07T12:57:17;100623.75;;;13.09;65.40
60345;BME280;46188;52.324;8.032;2023-04-07T12:59:42;100624.66;;;13.13;65.28
60345;BME280;46188;52.324;8.032;2023-04-07T13:02:08;100622.00;;;13.09;64.58
60345;BME280;46188;52.324;8.032;2023-04-07T13:04:35;100620.25;;;13.25;64.71